Mário de Almeida Franco Airport
SBUR : rendu visible

Aérodrome :











RETROUVEZ-NOUS SUR...

 
LOGIN :

S'inscrire | Disclaimer

   EN    FR    IT 

 









Légende :    VFR   VFR Marginal   IFR   IFR Intensif   IFR Très Intensif
Visi : 
Plafond : 
>= 8 km
>= 3000ft
5 à 8 km
1000 à 3000 ft
1500m à 5 km
500 à 1000 ft
800 à 1500m
200 à 500 ft
< 800m
< 200 ft
Symboles :   Orages  Brouillard  Fortes neiges  Fortes précipitations  Vent > 20 kt






- Altitude de l'aérodrome : 2655 ft
- Code IATA : UBA


SBUR - Mário de Almeida Franco

DERNIER METAR :
  • 241900Z 12007KT 9999 SCT040 FEW045TCU 27/17 Q1018 RETS

TAF TAF SBUR
Valide du 24 à 18h jusqu'au 25 à 06h UTC


241600Z 2418/2506 05010KT 9999 TS SCT035 FEW045CBTX30/2418Z TN21/2505Z
PROB30 2418/2421 5000 TSRA BKN025 FEW040CB
BECMG 2422/2424 CAVOK RMK PGG
FIR SBBS / Amérique du Sud



MET'MAP, la Météo Aéronautique d'un coup d'oeil ! - Copyright ORBIFLY Décembre 2007 - Disclaimer

ORBIFLY MET'MAP TEAM :

Programmation & Développement : Alexandra Zaïnal
Sur une idée originale de : Baudouin d'Aumeries
Assistance à la programmation : Marc-Olivier Méhu
Soutien technique & logistique : Manuel Goepfert

Contact : metmap@orbifly.com




SOURCES & CREDITS :

   NOAA       Earth
Advisory